Bartlesville, OK (74005)

1:38 PM CST on November 21, 2014 (GMT -0600)
Bartlesville - Osage County | Change Station
CLOSE
Current Station
Personal Weather Station
Location: Bartlesville, OK
Elevation: 873 ft
Nearby Weather Stations

Elev 873 ft 36.76 °N, 96.04 °W | Updated 3 minutes ago

Overcast
Overcast
50.9 °F
Feels Like 50.9 °F
N
6.0
Wind Variable Wind from SSE
Gusts 7.0 mph

Today
High -- | Low -- °F
--% Chance of Precip.
Yesterday
High -- | Low -- °F
Precip. -- in
7:08 AM 5:11 PM
Waning Crescent, 1% visible
Pressure 30.09 in
Visibility 5.0 miles
Clouds Few 600 ft
Overcast 1200 ft
Dew Point 50 °F
Humidity 97%
Rainfall 0.33 in
Snow Depth Not available.
UV 1 out of 12
Pollen 1.80 out of 12
Air Quality Not available.
Flu Activity Not available.
SPECI KBVO 211906Z AUTO 16006KT 5SM BR FEW006 OVC012 09/09 A3009 RMK AO2 T00940089

More Conditions Fewer Conditions

Pressure 30.09 in
Visibility 5.0 miles
Clouds Few 600 ft
Overcast 1200 ft
Dew Point 50 °F
Humidity 97%
Rainfall 0.33 in
Snow Depth Not available.
UV 1 out of 12
Pollen 1.80 out of 12
Air Quality Not available.
Flu Activity Not available.
SPECI KBVO 211906Z AUTO 16006KT 5SM BR FEW006 OVC012 09/09 A3009 RMK AO2 T00940089

More Conditions Fewer Conditions

Nowcast | as of 1:34 PM CST on November 21, 2014

At 1:34 PM...National Weather Service Doppler radars detected scattered light rain and patchy drizzle over parts of northwest Arkansas and far northeast Oklahoma. This activity continues to lift northeast at around 30 mph. Through 2:45 PM...patchy light rain and drizzle will remain possible for areas primarily along and north of a Bartlesville Oklahoma to Hackett Arkansas line. The spotty nature and coverage will result in measurable rainfall from a trace to a couple hundredths of an inch. With no organized convective precipitation occurring...this will be the final short term forecast issued for this event. There will be an increased chance for showers and isolated thunderstorms for the area during the late evening and overnight.

×

10-Day Weather Forecast

Almanac

Astronomy

Nov. 21, 2014 Rise Set
Actual Time
Civil Twilight
Nautical Twilight
Astronomical Twilight
Moon
Length of Visible Light
Length of Day
Tomorrow will be .
, % of the Moon is Illuminated

Today's Extremes

State Highs State Lows

Community

WunderPhotos

Upload Photos

1,772,703 photos uploaded!

WunderBlogs® & News

Nearby

Air Quality

  Air Quality AQ Index Pollutant
Not available.

Snow Depth

Station Depth Elevation

Earthquake Activity

City Distance Mag. Time & Date
Minimum magnitude displayed is 2.5.

Coastal Water Temperatures

Place Temperature

Nearby Weather Stations